sensor_id;sensor_type;location;lat;lon;timestamp;temperature;humidity
17200;DHT22;8716;52.268;20.968;2022-09-09T00:01:03;13.40;99.90
17200;DHT22;8716;52.268;20.968;2022-09-09T00:03:42;13.40;99.90
17200;DHT22;8716;52.268;20.968;2022-09-09T00:06:18;13.30;99.90
17200;DHT22;8716;52.268;20.968;2022-09-09T00:08:59;13.30;99.90
17200;DHT22;8716;52.268;20.968;2022-09-09T00:11:39;13.30;99.90
17200;DHT22;8716;52.268;20.968;2022-09-09T00:14:13;13.30;99.90
17200;DHT22;8716;52.268;20.968;2022-09-09T00:16:50;13.20;99.90
17200;DHT22;8716;52.268;20.968;2022-09-09T00:19:23;13.10;99.90
17200;DHT22;8716;52.268;20.968;2022-09-09T00:22:00;13.00;99.90
17200;DHT22;8716;52.268;20.968;2022-09-09T00:24:41;13.00;99.90
17200;DHT22;8716;52.268;20.968;2022-09-09T00:27:16;13.00;99.90
17200;DHT22;8716;52.268;20.968;2022-09-09T00:29:51;13.00;99.90
17200;DHT22;8716;52.268;20.968;2022-09-09T00:32:21;13.00;99.90
17200;DHT22;8716;52.268;20.968;2022-09-09T00:34:53;12.90;99.90
17200;DHT22;8716;52.268;20.968;2022-09-09T00:37:24;12.90;99.90
17200;DHT22;8716;52.268;20.968;2022-09-09T00:39:58;12.90;99.90
17200;DHT22;8716;52.268;20.968;2022-09-09T00:42:34;13.00;99.90
17200;DHT22;8716;52.268;20.968;2022-09-09T00:45:19;12.90;99.90
17200;DHT22;8716;52.268;20.968;2022-09-09T00:47:53;12.90;99.90
17200;DHT22;8716;52.268;20.968;2022-09-09T00:50:35;12.80;99.90
17200;DHT22;8716;52.268;20.968;2022-09-09T00:53:19;12.90;99.90
17200;DHT22;8716;52.268;20.968;2022-09-09T00:55:56;12.80;99.90
17200;DHT22;8716;52.268;20.968;2022-09-09T00:58:31;12.80;99.90
17200;DHT22;8716;52.268;20.968;2022-09-09T01:01:04;12.80;99.90
17200;DHT22;8716;52.268;20.968;2022-09-09T01:03:35;12.80;99.90
17200;DHT22;8716;52.268;20.968;2022-09-09T01:06:13;12.80;99.90
17200;DHT22;8716;52.268;20.968;2022-09-09T01:11:50;12.80;99.90
17200;DHT22;8716;52.268;20.968;2022-09-09T01:14:35;12.80;99.90
17200;DHT22;8716;52.268;20.968;2022-09-09T01:17:14;12.80;99.90
17200;DHT22;8716;52.268;20.968;2022-09-09T01:19:58;12.80;99.90
17200;DHT22;8716;52.268;20.968;2022-09-09T01:22:43;12.80;99.90
17200;DHT22;8716;52.268;20.968;2022-09-09T01:25:30;12.80;99.90
17200;DHT22;8716;52.268;20.968;2022-09-09T01:28:10;12.80;99.90
17200;DHT22;8716;52.268;20.968;2022-09-09T01:30:41;12.70;99.90
17200;DHT22;8716;52.268;20.968;2022-09-09T01:33:15;12.70;99.90
17200;DHT22;8716;52.268;20.968;2022-09-09T01:35:48;12.80;99.90
17200;DHT22;8716;52.268;20.968;2022-09-09T01:38:24;12.70;99.90
17200;DHT22;8716;52.268;20.968;2022-09-09T01:40:53;12.70;99.90
17200;DHT22;8716;52.268;20.968;2022-09-09T01:43:29;12.70;99.90
17200;DHT22;8716;52.268;20.968;2022-09-09T01:46:00;12.60;99.90
17200;DHT22;8716;52.268;20.968;2022-09-09T01:48:30;12.60;99.90
17200;DHT22;8716;52.268;20.968;2022-09-09T01:51:08;12.80;99.90
17200;DHT22;8716;52.268;20.968;2022-09-09T01:53:41;12.70;99.90
17200;DHT22;8716;52.268;20.968;2022-09-09T01:56:19;12.70;99.90
17200;DHT22;8716;52.268;20.968;2022-09-09T01:59:03;12.80;99.90
17200;DHT22;8716;52.268;20.968;2022-09-09T02:01:43;12.70;99.90
17200;DHT22;8716;52.268;20.968;2022-09-09T02:04:26;12.80;99.90
17200;DHT22;8716;52.268;20.968;2022-09-09T02:06:57;12.70;99.90
17200;DHT22;8716;52.268;20.968;2022-09-09T02:09:29;12.80;99.90
17200;DHT22;8716;52.268;20.968;2022-09-09T02:12:03;12.70;99.90
17200;DHT22;8716;52.268;20.968;2022-09-09T02:14:50;12.70;99.90
17200;DHT22;8716;52.268;20.968;2022-09-09T02:17:25;12.70;99.90
17200;DHT22;8716;52.268;20.968;2022-09-09T02:20:12;12.70;99.90
17200;DHT22;8716;52.268;20.968;2022-09-09T02:22:48;12.80;99.90
17200;DHT22;8716;52.268;20.968;2022-09-09T02:25:21;12.70;99.90
17200;DHT22;8716;52.268;20.968;2022-09-09T02:27:52;12.70;99.90
17200;DHT22;8716;52.268;20.968;2022-09-09T02:30:21;12.70;99.90
17200;DHT22;8716;52.268;20.968;2022-09-09T02:32:56;12.80;99.90
17200;DHT22;8716;52.268;20.968;2022-09-09T02:35:40;12.80;99.90
17200;DHT22;8716;52.268;20.968;2022-09-09T02:38:13;12.80;99.90
17200;DHT22;8716;52.268;20.968;2022-09-09T02:40:51;12.80;99.90
17200;DHT22;8716;52.268;20.968;2022-09-09T02:43:20;12.90;99.90
17200;DHT22;8716;52.268;20.968;2022-09-09T02:45:56;12.80;99.90
17200;DHT22;8716;52.268;20.968;2022-09-09T02:48:36;12.80;99.90
17200;DHT22;8716;52.268;20.968;2022-09-09T02:51:13;12.80;99.90
17200;DHT22;8716;52.268;20.968;2022-09-09T02:53:49;12.90;99.90
17200;DHT22;8716;52.268;20.968;2022-09-09T02:56:21;12.90;99.90
17200;DHT22;8716;52.268;20.968;2022-09-09T02:58:50;12.90;99.90
17200;DHT22;8716;52.268;20.968;2022-09-09T03:01:20;12.90;99.90
17200;DHT22;8716;52.268;20.968;2022-09-09T03:03:48;12.90;99.90
17200;DHT22;8716;52.268;20.968;2022-09-09T03:06:17;13.00;99.90
17200;DHT22;8716;52.268;20.968;2022-09-09T03:08:50;13.00;99.90
17200;DHT22;8716;52.268;20.968;2022-09-09T03:11:24;13.00;99.90
17200;DHT22;8716;52.268;20.968;2022-09-09T03:13:52;13.10;99.90
17200;DHT22;8716;52.268;20.968;2022-09-09T03:16:26;13.00;99.90
17200;DHT22;8716;52.268;20.968;2022-09-09T03:18:54;13.00;99.90
17200;DHT22;8716;52.268;20.968;2022-09-09T03:21:22;13.10;99.90
17200;DHT22;8716;52.268;20.968;2022-09-09T03:23:51;13.10;99.90
17200;DHT22;8716;52.268;20.968;2022-09-09T03:26:19;13.10;99.90
17200;DHT22;8716;52.268;20.968;2022-09-09T03:28:47;13.00;99.90
17200;DHT22;8716;52.268;20.968;2022-09-09T03:31:18;13.00;99.90
17200;DHT22;8716;52.268;20.968;2022-09-09T03:33:47;13.10;99.90
17200;DHT22;8716;52.268;20.968;2022-09-09T03:36:17;13.10;99.90
17200;DHT22;8716;52.268;20.968;2022-09-09T03:38:46;13.00;99.90
17200;DHT22;8716;52.268;20.968;2022-09-09T03:41:14;13.10;99.90
17200;DHT22;8716;52.268;20.968;2022-09-09T03:43:42;13.10;99.90
17200;DHT22;8716;52.268;20.968;2022-09-09T03:46:11;13.10;99.90
17200;DHT22;8716;52.268;20.968;2022-09-09T03:48:39;13.10;99.90
17200;DHT22;8716;52.268;20.968;2022-09-09T03:51:08;13.10;99.90
17200;DHT22;8716;52.268;20.968;2022-09-09T03:53:37;13.10;99.90
17200;DHT22;8716;52.268;20.968;2022-09-09T03:56:06;13.10;99.90
17200;DHT22;8716;52.268;20.968;2022-09-09T03:58:35;13.10;99.90
17200;DHT22;8716;52.268;20.968;2022-09-09T04:01:08;13.10;99.90
17200;DHT22;8716;52.268;20.968;2022-09-09T04:03:38;13.10;99.90
17200;DHT22;8716;52.268;20.968;2022-09-09T04:06:09;13.10;99.90
17200;DHT22;8716;52.268;20.968;2022-09-09T04:08:38;13.20;99.90
17200;DHT22;8716;52.268;20.968;2022-09-09T04:11:07;13.10;99.90
17200;DHT22;8716;52.268;20.968;2022-09-09T04:13:37;13.20;99.90
17200;DHT22;8716;52.268;20.968;2022-09-09T04:16:10;13.20;99.90
17200;DHT22;8716;52.268;20.968;2022-09-09T04:18:41;13.30;99.90
17200;DHT22;8716;52.268;20.968;2022-09-09T04:21:11;13.20;99.90
17200;DHT22;8716;52.268;20.968;2022-09-09T04:23:40;13.20;99.90
17200;DHT22;8716;52.268;20.968;2022-09-09T04:26:08;13.20;99.90
17200;DHT22;8716;52.268;20.968;2022-09-09T04:28:37;13.10;99.90
17200;DHT22;8716;52.268;20.968;2022-09-09T04:31:16;13.20;99.90
17200;DHT22;8716;52.268;20.968;2022-09-09T04:33:46;13.20;99.90
17200;DHT22;8716;52.268;20.968;2022-09-09T04:36:17;13.20;99.90
17200;DHT22;8716;52.268;20.968;2022-09-09T04:38:50;13.30;99.90
17200;DHT22;8716;52.268;20.968;2022-09-09T04:41:18;13.30;99.90
17200;DHT22;8716;52.268;20.968;2022-09-09T04:43:51;13.30;99.90
17200;DHT22;8716;52.268;20.968;2022-09-09T04:46:21;13.40;99.90
17200;DHT22;8716;52.268;20.968;2022-09-09T04:48:50;13.40;99.90
17200;DHT22;8716;52.268;20.968;2022-09-09T04:51:20;13.40;99.90
17200;DHT22;8716;52.268;20.968;2022-09-09T04:53:50;13.40;99.90
17200;DHT22;8716;52.268;20.968;2022-09-09T04:56:20;13.40;99.90
17200;DHT22;8716;52.268;20.968;2022-09-09T04:58:54;13.40;99.90
17200;DHT22;8716;52.268;20.968;2022-09-09T05:01:31;13.30;99.90
17200;DHT22;8716;52.268;20.968;2022-09-09T05:04:03;13.30;99.90
17200;DHT22;8716;52.268;20.968;2022-09-09T05:06:34;13.30;99.90
17200;DHT22;8716;52.268;20.968;2022-09-09T05:09:06;13.30;99.90
17200;DHT22;8716;52.268;20.968;2022-09-09T05:11:34;13.40;99.90
17200;DHT22;8716;52.268;20.968;2022-09-09T05:14:23;13.40;99.90
17200;DHT22;8716;52.268;20.968;2022-09-09T05:16:54;13.40;99.90
17200;DHT22;8716;52.268;20.968;2022-09-09T05:19:23;13.50;99.90
17200;DHT22;8716;52.268;20.968;2022-09-09T05:21:54;13.40;99.90
17200;DHT22;8716;52.268;20.968;2022-09-09T05:24:32;13.50;99.90
17200;DHT22;8716;52.268;20.968;2022-09-09T05:27:02;13.50;99.90
17200;DHT22;8716;52.268;20.968;2022-09-09T05:29:32;13.50;99.90
17200;DHT22;8716;52.268;20.968;2022-09-09T05:32:03;13.50;99.90
17200;DHT22;8716;52.268;20.968;2022-09-09T05:34:32;13.60;99.90
17200;DHT22;8716;52.268;20.968;2022-09-09T05:37:01;13.60;99.90
17200;DHT22;8716;52.268;20.968;2022-09-09T05:39:31;13.60;99.90
17200;DHT22;8716;52.268;20.968;2022-09-09T05:42:00;13.60;99.90
17200;DHT22;8716;52.268;20.968;2022-09-09T05:44:30;13.60;99.90
17200;DHT22;8716;52.268;20.968;2022-09-09T05:47:00;13.60;99.90
17200;DHT22;8716;52.268;20.968;2022-09-09T05:49:28;13.60;99.90
17200;DHT22;8716;52.268;20.968;2022-09-09T05:51:58;13.60;99.90
17200;DHT22;8716;52.268;20.968;2022-09-09T05:54:28;13.50;99.90
17200;DHT22;8716;52.268;20.968;2022-09-09T05:56:56;13.60;99.90
17200;DHT22;8716;52.268;20.968;2022-09-09T05:59:28;13.50;99.90
17200;DHT22;8716;52.268;20.968;2022-09-09T06:01:56;13.50;99.90
17200;DHT22;8716;52.268;20.968;2022-09-09T06:04:31;13.50;99.90
17200;DHT22;8716;52.268;20.968;2022-09-09T06:07:00;13.50;99.90
17200;DHT22;8716;52.268;20.968;2022-09-09T06:09:30;13.50;99.90
17200;DHT22;8716;52.268;20.968;2022-09-09T06:11:58;13.50;99.90
17200;DHT22;8716;52.268;20.968;2022-09-09T06:14:27;13.50;99.90
17200;DHT22;8716;52.268;20.968;2022-09-09T06:16:58;13.50;99.90
17200;DHT22;8716;52.268;20.968;2022-09-09T06:19:29;13.60;99.90
17200;DHT22;8716;52.268;20.968;2022-09-09T06:21:58;13.60;99.90
17200;DHT22;8716;52.268;20.968;2022-09-09T06:24:30;13.60;99.90
17200;DHT22;8716;52.268;20.968;2022-09-09T06:27:03;13.60;99.90
17200;DHT22;8716;52.268;20.968;2022-09-09T06:29:34;13.70;99.90
17200;DHT22;8716;52.268;20.968;2022-09-09T06:32:02;13.70;99.90
17200;DHT22;8716;52.268;20.968;2022-09-09T06:34:31;13.70;99.90
17200;DHT22;8716;52.268;20.968;2022-09-09T06:36:59;13.70;99.90
17200;DHT22;8716;52.268;20.968;2022-09-09T06:39:40;13.70;99.90
17200;DHT22;8716;52.268;20.968;2022-09-09T06:42:09;13.80;99.90
17200;DHT22;8716;52.268;20.968;2022-09-09T06:44:48;13.80;99.90
17200;DHT22;8716;52.268;20.968;2022-09-09T06:47:23;13.80;99.90
17200;DHT22;8716;52.268;20.968;2022-09-09T06:49:53;13.80;99.90
17200;DHT22;8716;52.268;20.968;2022-09-09T06:52:21;13.80;99.90
17200;DHT22;8716;52.268;20.968;2022-09-09T06:54:51;13.80;99.90
17200;DHT22;8716;52.268;20.968;2022-09-09T06:57:20;13.90;99.90
17200;DHT22;8716;52.268;20.968;2022-09-09T07:00:11;13.90;99.90
17200;DHT22;8716;52.268;20.968;2022-09-09T07:02:43;14.00;99.90
17200;DHT22;8716;52.268;20.968;2022-09-09T07:05:12;14.00;99.90
17200;DHT22;8716;52.268;20.968;2022-09-09T07:07:44;13.90;99.90
17200;DHT22;8716;52.268;20.968;2022-09-09T07:10:16;14.00;99.90
17200;DHT22;8716;52.268;20.968;2022-09-09T07:12:44;14.00;99.90
17200;DHT22;8716;52.268;20.968;2022-09-09T07:15:22;14.10;99.90
17200;DHT22;8716;52.268;20.968;2022-09-09T07:17:50;14.00;99.90
17200;DHT22;8716;52.268;20.968;2022-09-09T07:20:20;14.00;99.90
17200;DHT22;8716;52.268;20.968;2022-09-09T07:22:49;14.00;99.90
17200;DHT22;8716;52.268;20.968;2022-09-09T07:25:19;14.00;99.90
17200;DHT22;8716;52.268;20.968;2022-09-09T07:27:47;14.10;99.90
17200;DHT22;8716;52.268;20.968;2022-09-09T07:30:16;14.10;99.90
17200;DHT22;8716;52.268;20.968;2022-09-09T07:32:54;14.10;99.90
17200;DHT22;8716;52.268;20.968;2022-09-09T07:35:24;14.20;99.90
17200;DHT22;8716;52.268;20.968;2022-09-09T07:37:53;14.20;99.90
17200;DHT22;8716;52.268;20.968;2022-09-09T07:40:26;14.20;99.90
17200;DHT22;8716;52.268;20.968;2022-09-09T07:42:54;14.20;99.90
17200;DHT22;8716;52.268;20.968;2022-09-09T07:45:22;14.30;99.90
17200;DHT22;8716;52.268;20.968;2022-09-09T07:47:51;14.30;99.90
17200;DHT22;8716;52.268;20.968;2022-09-09T07:50:19;14.20;99.90
17200;DHT22;8716;52.268;20.968;2022-09-09T07:52:49;14.30;99.90
17200;DHT22;8716;52.268;20.968;2022-09-09T07:55:17;14.30;99.90
17200;DHT22;8716;52.268;20.968;2022-09-09T07:57:47;14.40;99.90
17200;DHT22;8716;52.268;20.968;2022-09-09T08:00:16;14.40;99.90
17200;DHT22;8716;52.268;20.968;2022-09-09T08:02:50;14.40;99.90
17200;DHT22;8716;52.268;20.968;2022-09-09T08:05:21;14.40;99.90
17200;DHT22;8716;52.268;20.968;2022-09-09T08:07:52;14.40;99.90
17200;DHT22;8716;52.268;20.968;2022-09-09T08:10:20;14.50;99.90
17200;DHT22;8716;52.268;20.968;2022-09-09T08:12:51;14.50;99.90
17200;DHT22;8716;52.268;20.968;2022-09-09T08:15:40;14.60;99.90
17200;DHT22;8716;52.268;20.968;2022-09-09T08:18:10;14.50;99.90
17200;DHT22;8716;52.268;20.968;2022-09-09T08:20:38;14.60;99.90
17200;DHT22;8716;52.268;20.968;2022-09-09T08:23:06;14.60;99.90
17200;DHT22;8716;52.268;20.968;2022-09-09T08:25:35;14.60;99.90
17200;DHT22;8716;52.268;20.968;2022-09-09T08:28:04;14.60;99.90
17200;DHT22;8716;52.268;20.968;2022-09-09T08:30:33;14.70;99.90
17200;DHT22;8716;52.268;20.968;2022-09-09T08:33:01;14.70;99.90
17200;DHT22;8716;52.268;20.968;2022-09-09T08:35:29;14.70;99.90
17200;DHT22;8716;52.268;20.968;2022-09-09T08:38:01;14.70;99.90
17200;DHT22;8716;52.268;20.968;2022-09-09T08:40:42;14.70;99.90
17200;DHT22;8716;52.268;20.968;2022-09-09T08:43:20;14.80;99.90
17200;DHT22;8716;52.268;20.968;2022-09-09T08:45:58;14.80;99.90
17200;DHT22;8716;52.268;20.968;2022-09-09T08:48:44;14.90;99.90
17200;DHT22;8716;52.268;20.968;2022-09-09T08:51:15;14.80;99.90
17200;DHT22;8716;52.268;20.968;2022-09-09T08:53:49;14.80;99.90
17200;DHT22;8716;52.268;20.968;2022-09-09T08:56:25;14.80;99.90
17200;DHT22;8716;52.268;20.968;2022-09-09T08:59:00;14.80;99.90
17200;DHT22;8716;52.268;20.968;2022-09-09T09:01:58;14.90;99.90
17200;DHT22;8716;52.268;20.968;2022-09-09T09:04:52;15.00;99.90
17200;DHT22;8716;52.268;20.968;2022-09-09T09:07:31;15.00;99.90
17200;DHT22;8716;52.268;20.968;2022-09-09T09:10:10;15.10;99.90
17200;DHT22;8716;52.268;20.968;2022-09-09T09:13:01;15.00;99.90
17200;DHT22;8716;52.268;20.968;2022-09-09T09:15:36;15.10;99.90
17200;DHT22;8716;52.268;20.968;2022-09-09T09:18:10;15.00;99.90
17200;DHT22;8716;52.268;20.968;2022-09-09T09:20:45;15.10;99.90
17200;DHT22;8716;52.268;20.968;2022-09-09T09:23:22;15.10;99.90
17200;DHT22;8716;52.268;20.968;2022-09-09T09:25:58;15.10;99.90
17200;DHT22;8716;52.268;20.968;2022-09-09T09:28:30;15.20;99.90
17200;DHT22;8716;52.268;20.968;2022-09-09T09:31:10;15.20;99.90
17200;DHT22;8716;52.268;20.968;2022-09-09T09:33:47;15.10;99.90
17200;DHT22;8716;52.268;20.968;2022-09-09T09:36:18;15.20;99.90
17200;DHT22;8716;52.268;20.968;2022-09-09T09:38:54;15.20;99.90
17200;DHT22;8716;52.268;20.968;2022-09-09T09:41:44;15.30;99.90
17200;DHT22;8716;52.268;20.968;2022-09-09T09:44:24;15.30;99.90
17200;DHT22;8716;52.268;20.968;2022-09-09T09:47:05;15.30;99.90
17200;DHT22;8716;52.268;20.968;2022-09-09T09:49:34;15.30;99.90
17200;DHT22;8716;52.268;20.968;2022-09-09T09:52:04;15.30;99.90
17200;DHT22;8716;52.268;20.968;2022-09-09T09:54:36;15.30;99.90
17200;DHT22;8716;52.268;20.968;2022-09-09T09:57:09;15.30;99.90
17200;DHT22;8716;52.268;20.968;2022-09-09T09:59:41;15.30;99.90
17200;DHT22;8716;52.268;20.968;2022-09-09T10:02:22;15.30;99.90
17200;DHT22;8716;52.268;20.968;2022-09-09T10:05:02;15.30;99.90
17200;DHT22;8716;52.268;20.968;2022-09-09T10:07:32;15.40;99.90
17200;DHT22;8716;52.268;20.968;2022-09-09T10:10:00;15.40;99.90
17200;DHT22;8716;52.268;20.968;2022-09-09T10:12:39;15.40;99.90
17200;DHT22;8716;52.268;20.968;2022-09-09T10:15:29;15.40;99.90
17200;DHT22;8716;52.268;20.968;2022-09-09T10:18:12;15.40;99.90
17200;DHT22;8716;52.268;20.968;2022-09-09T10:20:49;15.40;99.90
17200;DHT22;8716;52.268;20.968;2022-09-09T10:23:38;15.40;99.90
17200;DHT22;8716;52.268;20.968;2022-09-09T10:26:21;15.50;99.90
17200;DHT22;8716;52.268;20.968;2022-09-09T10:29:05;15.50;99.90
17200;DHT22;8716;52.268;20.968;2022-09-09T10:31:45;15.60;99.90
17200;DHT22;8716;52.268;20.968;2022-09-09T10:34:37;15.60;99.90
17200;DHT22;8716;52.268;20.968;2022-09-09T10:37:16;15.70;99.90
17200;DHT22;8716;52.268;20.968;2022-09-09T10:39:54;15.70;99.90
17200;DHT22;8716;52.268;20.968;2022-09-09T10:42:31;15.60;99.90
17200;DHT22;8716;52.268;20.968;2022-09-09T10:45:10;15.60;99.90
17200;DHT22;8716;52.268;20.968;2022-09-09T10:48:06;15.60;99.90
17200;DHT22;8716;52.268;20.968;2022-09-09T10:51:00;15.70;99.90
17200;DHT22;8716;52.268;20.968;2022-09-09T10:53:36;15.70;99.90
17200;DHT22;8716;52.268;20.968;2022-09-09T10:56:10;15.70;99.90
17200;DHT22;8716;52.268;20.968;2022-09-09T10:58:44;15.80;99.90
17200;DHT22;8716;52.268;20.968;2022-09-09T11:01:18;15.70;99.90
17200;DHT22;8716;52.268;20.968;2022-09-09T11:03:53;15.80;99.90
17200;DHT22;8716;52.268;20.968;2022-09-09T11:06:28;15.70;99.90
17200;DHT22;8716;52.268;20.968;2022-09-09T11:08:59;15.80;99.90
17200;DHT22;8716;52.268;20.968;2022-09-09T11:11:32;15.70;99.90
17200;DHT22;8716;52.268;20.968;2022-09-09T11:14:05;15.80;99.90
17200;DHT22;8716;52.268;20.968;2022-09-09T11:16:41;15.70;99.90
17200;DHT22;8716;52.268;20.968;2022-09-09T11:19:15;15.70;99.90
17200;DHT22;8716;52.268;20.968;2022-09-09T11:21:47;15.80;99.90
17200;DHT22;8716;52.268;20.968;2022-09-09T11:24:20;15.80;99.90
17200;DHT22;8716;52.268;20.968;2022-09-09T11:26:53;15.80;99.90
17200;DHT22;8716;52.268;20.968;2022-09-09T11:32:33;15.80;99.90
17200;DHT22;8716;52.268;20.968;2022-09-09T11:35:21;15.80;99.90
17200;DHT22;8716;52.268;20.968;2022-09-09T11:38:08;15.80;99.90
17200;DHT22;8716;52.268;20.968;2022-09-09T11:40:40;15.80;99.90
17200;DHT22;8716;52.268;20.968;2022-09-09T11:43:10;15.80;99.90
17200;DHT22;8716;52.268;20.968;2022-09-09T11:45:41;15.90;99.90
17200;DHT22;8716;52.268;20.968;2022-09-09T11:48:24;15.90;99.90
17200;DHT22;8716;52.268;20.968;2022-09-09T11:51:02;16.00;99.90
17200;DHT22;8716;52.268;20.968;2022-09-09T11:53:34;16.00;99.90
17200;DHT22;8716;52.268;20.968;2022-09-09T11:56:07;16.10;99.90
17200;DHT22;8716;52.268;20.968;2022-09-09T11:58:53;16.10;99.90
17200;DHT22;8716;52.268;20.968;2022-09-09T12:01:34;16.20;99.90
17200;DHT22;8716;52.268;20.968;2022-09-09T12:04:21;16.20;99.90
17200;DHT22;8716;52.268;20.968;2022-09-09T12:06:58;16.30;99.90
17200;DHT22;8716;52.268;20.968;2022-09-09T12:09:44;16.30;99.90
17200;DHT22;8716;52.268;20.968;2022-09-09T12:12:28;16.20;99.90
17200;DHT22;8716;52.268;20.968;2022-09-09T12:17:59;16.30;99.90
17200;DHT22;8716;52.268;20.968;2022-09-09T12:20:34;16.30;99.90
17200;DHT22;8716;52.268;20.968;2022-09-09T12:23:34;16.40;99.90
17200;DHT22;8716;52.268;20.968;2022-09-09T12:26:21;16.40;99.90
17200;DHT22;8716;52.268;20.968;2022-09-09T12:29:00;16.40;99.90
17200;DHT22;8716;52.268;20.968;2022-09-09T12:31:38;16.30;99.90
17200;DHT22;8716;52.268;20.968;2022-09-09T12:34:15;16.30;99.90
17200;DHT22;8716;52.268;20.968;2022-09-09T12:36:45;16.30;99.90
17200;DHT22;8716;52.268;20.968;2022-09-09T12:39:24;16.30;99.90
17200;DHT22;8716;52.268;20.968;2022-09-09T12:41:57;16.40;99.90
17200;DHT22;8716;52.268;20.968;2022-09-09T12:44:26;16.40;99.90
17200;DHT22;8716;52.268;20.968;2022-09-09T12:46:56;16.40;99.90
17200;DHT22;8716;52.268;20.968;2022-09-09T12:49:34;16.40;99.90
17200;DHT22;8716;52.268;20.968;2022-09-09T12:52:07;16.50;99.90
17200;DHT22;8716;52.268;20.968;2022-09-09T12:54:37;16.50;99.90
17200;DHT22;8716;52.268;20.968;2022-09-09T12:57:11;16.60;99.90
17200;DHT22;8716;52.268;20.968;2022-09-09T12:59:41;16.60;99.90
17200;DHT22;8716;52.268;20.968;2022-09-09T13:02:18;16.70;99.90
17200;DHT22;8716;52.268;20.968;2022-09-09T13:04:47;16.60;99.90
17200;DHT22;8716;52.268;20.968;2022-09-09T13:07:17;16.60;99.90
17200;DHT22;8716;52.268;20.968;2022-09-09T13:09:48;16.60;99.90
17200;DHT22;8716;52.268;20.968;2022-09-09T13:12:20;16.60;99.90
17200;DHT22;8716;52.268;20.968;2022-09-09T13:14:51;16.60;99.90
17200;DHT22;8716;52.268;20.968;2022-09-09T13:17:22;16.50;99.90
17200;DHT22;8716;52.268;20.968;2022-09-09T13:19:51;16.50;99.90
17200;DHT22;8716;52.268;20.968;2022-09-09T13:22:23;16.40;99.90
17200;DHT22;8716;52.268;20.968;2022-09-09T13:25:06;16.50;99.90
17200;DHT22;8716;52.268;20.968;2022-09-09T13:28:00;16.50;99.90
17200;DHT22;8716;52.268;20.968;2022-09-09T13:30:30;16.40;99.90
17200;DHT22;8716;52.268;20.968;2022-09-09T13:35:49;16.50;99.90
17200;DHT22;8716;52.268;20.968;2022-09-09T13:38:17;16.40;99.90
17200;DHT22;8716;52.268;20.968;2022-09-09T13:40:53;16.50;99.90
17200;DHT22;8716;52.268;20.968;2022-09-09T13:43:26;16.50;99.90
17200;DHT22;8716;52.268;20.968;2022-09-09T13:45:56;16.40;99.90
17200;DHT22;8716;52.268;20.968;2022-09-09T13:48:25;16.50;99.90
17200;DHT22;8716;52.268;20.968;2022-09-09T13:50:58;16.50;99.90
17200;DHT22;8716;52.268;20.968;2022-09-09T13:53:27;16.40;99.90
17200;DHT22;8716;52.268;20.968;2022-09-09T13:55:55;16.30;99.90
17200;DHT22;8716;52.268;20.968;2022-09-09T13:58:25;16.40;99.90
17200;DHT22;8716;52.268;20.968;2022-09-09T14:00:55;16.30;99.90
17200;DHT22;8716;52.268;20.968;2022-09-09T14:03:24;16.30;99.90
17200;DHT22;8716;52.268;20.968;2022-09-09T14:05:53;16.20;99.90
17200;DHT22;8716;52.268;20.968;2022-09-09T14:08:26;16.20;99.90
17200;DHT22;8716;52.268;20.968;2022-09-09T14:10:55;16.30;99.90
17200;DHT22;8716;52.268;20.968;2022-09-09T14:13:26;16.20;99.90
17200;DHT22;8716;52.268;20.968;2022-09-09T14:15:54;16.20;99.90
17200;DHT22;8716;52.268;20.968;2022-09-09T14:18:23;16.20;99.90
17200;DHT22;8716;52.268;20.968;2022-09-09T14:20:54;16.20;99.90
17200;DHT22;8716;52.268;20.968;2022-09-09T14:23:26;16.20;99.90
17200;DHT22;8716;52.268;20.968;2022-09-09T14:25:54;16.20;99.90
17200;DHT22;8716;52.268;20.968;2022-09-09T14:28:22;16.20;99.90
17200;DHT22;8716;52.268;20.968;2022-09-09T14:31:11;16.10;99.90
17200;DHT22;8716;52.268;20.968;2022-09-09T14:33:40;16.10;99.90
17200;DHT22;8716;52.268;20.968;2022-09-09T14:36:09;16.10;99.90
17200;DHT22;8716;52.268;20.968;2022-09-09T14:38:38;16.20;99.90
17200;DHT22;8716;52.268;20.968;2022-09-09T14:41:07;16.20;99.90
17200;DHT22;8716;52.268;20.968;2022-09-09T14:43:37;16.10;99.90
17200;DHT22;8716;52.268;20.968;2022-09-09T14:46:06;16.00;99.90
17200;DHT22;8716;52.268;20.968;2022-09-09T14:48:36;16.00;99.90
17200;DHT22;8716;52.268;20.968;2022-09-09T14:51:08;16.00;99.90
17200;DHT22;8716;52.268;20.968;2022-09-09T14:53:36;16.00;99.90
17200;DHT22;8716;52.268;20.968;2022-09-09T14:56:06;16.10;99.90
17200;DHT22;8716;52.268;20.968;2022-09-09T14:58:35;16.20;99.90
17200;DHT22;8716;52.268;20.968;2022-09-09T15:01:04;16.20;99.90
17200;DHT22;8716;52.268;20.968;2022-09-09T15:03:33;16.20;99.90
17200;DHT22;8716;52.268;20.968;2022-09-09T15:06:09;16.20;99.90
17200;DHT22;8716;52.268;20.968;2022-09-09T15:08:42;16.20;99.90
17200;DHT22;8716;52.268;20.968;2022-09-09T15:11:11;16.20;99.90
17200;DHT22;8716;52.268;20.968;2022-09-09T15:13:43;16.30;99.90
17200;DHT22;8716;52.268;20.968;2022-09-09T15:16:12;16.20;99.90
17200;DHT22;8716;52.268;20.968;2022-09-09T15:18:41;16.30;99.90
17200;DHT22;8716;52.268;20.968;2022-09-09T15:21:14;16.30;99.90
17200;DHT22;8716;52.268;20.968;2022-09-09T15:23:43;16.30;99.90
17200;DHT22;8716;52.268;20.968;2022-09-09T15:26:11;16.30;99.90
17200;DHT22;8716;52.268;20.968;2022-09-09T15:28:41;16.30;99.90
17200;DHT22;8716;52.268;20.968;2022-09-09T15:31:12;16.30;99.90
17200;DHT22;8716;52.268;20.968;2022-09-09T15:33:41;16.30;99.90
17200;DHT22;8716;52.268;20.968;2022-09-09T15:36:18;16.30;99.90
17200;DHT22;8716;52.268;20.968;2022-09-09T15:38:46;16.30;99.90
17200;DHT22;8716;52.268;20.968;2022-09-09T15:41:16;16.20;99.90
17200;DHT22;8716;52.268;20.968;2022-09-09T15:43:45;16.40;99.90
17200;DHT22;8716;52.268;20.968;2022-09-09T15:46:26;16.40;99.90
17200;DHT22;8716;52.268;20.968;2022-09-09T15:48:56;16.30;99.90
17200;DHT22;8716;52.268;20.968;2022-09-09T15:51:26;16.30;99.90
17200;DHT22;8716;52.268;20.968;2022-09-09T15:54:10;16.30;99.90
17200;DHT22;8716;52.268;20.968;2022-09-09T15:56:39;16.30;99.90
17200;DHT22;8716;52.268;20.968;2022-09-09T15:59:08;16.30;99.90
17200;DHT22;8716;52.268;20.968;2022-09-09T16:01:37;16.30;99.90
17200;DHT22;8716;52.268;20.968;2022-09-09T16:04:06;16.30;99.90
17200;DHT22;8716;52.268;20.968;2022-09-09T16:06:35;16.40;99.90
17200;DHT22;8716;52.268;20.968;2022-09-09T16:09:07;16.40;99.90
17200;DHT22;8716;52.268;20.968;2022-09-09T16:11:37;16.30;99.90
17200;DHT22;8716;52.268;20.968;2022-09-09T16:14:05;16.20;99.90
17200;DHT22;8716;52.268;20.968;2022-09-09T16:16:34;16.30;99.90
17200;DHT22;8716;52.268;20.968;2022-09-09T16:19:04;16.30;99.90
17200;DHT22;8716;52.268;20.968;2022-09-09T16:21:38;16.50;99.90